createdAt,value
2018-10-01T00:00:35.561Z,147247.23
2018-10-01T00:03:06.040Z,147244.75
2018-10-01T00:05:36.119Z,147243.52
2018-10-01T00:08:06.571Z,147171.59
2018-10-01T00:10:36.907Z,147231.13
2018-10-01T00:13:07.632Z,147219.97
2018-10-01T00:15:39.201Z,147223.69
2018-10-01T00:18:09.510Z,147224.92
2018-10-01T00:20:45.362Z,147227.41
2018-10-01T00:23:15.611Z,147216.25
2018-10-01T00:25:46.129Z,147219.97
2018-10-01T00:28:16.485Z,147205.05
2018-10-01T00:30:48.875Z,147201.33
2018-10-01T00:33:19.042Z,147203.81
2018-10-01T00:35:49.163Z,147205.05
2018-10-01T00:38:19.907Z,147207.53
2018-10-01T00:40:50.036Z,147205.05
2018-10-01T00:43:20.338Z,147185.22
2018-10-01T00:45:50.563Z,147179.03
2018-10-01T00:48:20.888Z,147180.25
2018-10-01T00:50:52.179Z,147166.58
2018-10-01T00:53:22.127Z,147167.81
2018-10-01T00:55:52.272Z,147145.52
2018-10-01T00:58:22.902Z,147157.91
2018-10-01T01:00:52.813Z,147145.52
2018-10-01T01:03:22.846Z,147164.11
2018-10-01T01:05:54.055Z,147165.34
2018-10-01T01:08:24.086Z,147152.95
2018-10-01T01:10:55.294Z,147136.84
2018-10-01T01:13:25.331Z,147110.78
2018-10-01T01:15:55.633Z,147109.53
2018-10-01T01:18:26.048Z,147097.14
2018-10-01T01:20:56.871Z,147089.72
2018-10-01T01:23:27.307Z,147083.52
2018-10-01T01:25:57.611Z,147088.47
2018-10-01T01:28:27.641Z,147076.09
2018-10-01T01:30:58.101Z,147071.08
2018-10-01T01:33:29.080Z,147066.12
2018-10-01T01:35:59.405Z,147056.22
2018-10-01T01:38:29.661Z,147042.59
2018-10-01T01:40:59.676Z,147041.36
2018-10-01T01:43:30.341Z,147026.44
2018-10-01T01:46:00.661Z,147019.00
2018-10-01T01:48:30.809Z,147042.59
2018-10-01T01:51:01.049Z,147035.16
2018-10-01T01:53:32.240Z,147038.88
2018-10-01T01:56:03.335Z,147033.92
2018-10-01T01:58:33.302Z,147037.63
2018-10-01T02:01:03.637Z,147059.94
2018-10-01T02:03:33.859Z,147056.22
2018-10-01T02:06:04.090Z,147077.33
2018-10-01T02:08:34.390Z,147088.47
2018-10-01T02:11:06.317Z,147086.00
2018-10-01T02:13:36.505Z,147071.08
2018-10-01T02:16:06.769Z,147094.67
2018-10-01T02:18:37.156Z,147083.52
2018-10-01T02:21:07.571Z,147079.80
2018-10-01T02:23:37.754Z,147076.09
2018-10-01T02:26:07.968Z,147062.41
2018-10-01T02:28:38.039Z,147084.75
2018-10-01T02:31:08.364Z,147071.08
2018-10-01T02:33:38.629Z,147073.56
2018-10-01T02:36:09.104Z,147073.56
2018-10-01T02:38:39.245Z,147069.84
2018-10-01T02:41:10.609Z,147072.33
2018-10-01T02:43:40.723Z,147079.80
2018-10-01T02:46:11.062Z,147079.80
2018-10-01T02:48:40.978Z,147090.95
2018-10-01T02:51:11.656Z,147072.33
2018-10-01T02:53:46.472Z,147066.12
2018-10-01T02:56:16.666Z,147071.08
2018-10-01T02:58:46.922Z,147058.69
2018-10-01T03:01:17.798Z,147073.56
2018-10-01T03:03:48.121Z,147056.22
2018-10-01T03:06:18.320Z,147054.97
2018-10-01T03:08:49.396Z,147058.69
2018-10-01T03:11:20.297Z,147053.73
2018-10-01T03:13:50.796Z,147035.16
2018-10-01T03:16:20.986Z,147048.78
2018-10-01T03:18:51.378Z,147031.44
2018-10-01T03:21:21.982Z,147031.44
2018-10-01T03:23:52.101Z,147030.20
2018-10-01T03:26:22.455Z,147036.41
2018-10-01T03:28:52.490Z,147053.73
2018-10-01T03:31:23.275Z,147042.59
2018-10-01T03:33:53.705Z,147048.78
2018-10-01T03:36:26.909Z,147053.73
2018-10-01T03:38:57.056Z,147053.73
2018-10-01T03:41:28.016Z,147033.92
2018-10-01T03:43:58.221Z,147047.55
2018-10-01T03:46:29.801Z,147048.78
2018-10-01T03:49:03.519Z,147041.36
2018-10-01T03:51:33.938Z,147032.69
2018-10-01T03:54:04.215Z,147033.92
2018-10-01T03:56:34.631Z,147031.44
2018-10-01T03:59:04.601Z,147035.16
2018-10-01T04:01:34.755Z,147032.69
2018-10-01T04:04:05.010Z,147031.44
2018-10-01T04:06:35.289Z,147020.25
2018-10-01T04:09:06.716Z,147025.20
2018-10-01T04:11:37.640Z,147019.00
2018-10-01T04:14:07.658Z,147033.92
2018-10-01T04:16:37.794Z,147025.20
2018-10-01T04:19:08.161Z,147028.97
2018-10-01T04:21:38.113Z,147040.11
2018-10-01T04:24:08.181Z,147048.78
2018-10-01T04:26:38.112Z,147041.36
2018-10-01T04:29:08.588Z,147036.41
2018-10-01T04:31:39.554Z,147037.63
2018-10-01T04:34:09.483Z,147047.55
2018-10-01T04:36:41.224Z,147043.83
2018-10-01T04:39:13.772Z,147052.50
2018-10-01T04:41:45.303Z,147056.22
2018-10-01T04:44:15.702Z,147074.84
2018-10-01T04:46:45.906Z,147084.75
2018-10-01T04:49:16.335Z,147087.23
2018-10-01T04:51:46.418Z,147092.19
2018-10-01T04:54:16.078Z,147097.14
2018-10-01T04:56:45.925Z,147104.58
2018-10-01T04:59:15.956Z,147068.59
2018-10-01T05:01:45.742Z,147114.48
2018-10-01T05:04:15.413Z,147125.69
2018-10-01T05:06:50.977Z,147120.69
2018-10-01T05:09:20.672Z,147093.44
2018-10-01T05:11:50.470Z,147098.39
2018-10-01T05:14:20.136Z,147110.78
2018-10-01T05:16:49.819Z,147095.91
2018-10-01T05:19:19.570Z,147115.73
2018-10-01T05:21:49.243Z,147119.44
2018-10-01T05:24:19.089Z,147130.64
2018-10-01T05:26:49.672Z,147124.45
2018-10-01T05:29:20.711Z,147138.08
2018-10-01T05:31:50.589Z,147143.03
2018-10-01T05:34:20.261Z,147154.19
2018-10-01T05:36:49.980Z,147151.72
2018-10-01T05:39:19.628Z,147152.95
2018-10-01T05:41:49.283Z,147161.62
2018-10-01T05:44:18.993Z,147177.78
2018-10-01T05:46:48.697Z,147185.22
2018-10-01T05:49:18.459Z,147219.97
2018-10-01T05:51:48.162Z,147212.48
2018-10-01T05:54:17.882Z,147214.97
2018-10-01T05:56:47.752Z,147219.97
2018-10-01T05:59:18.446Z,147234.84
2018-10-01T06:01:49.169Z,147236.08
2018-10-01T06:04:20.050Z,147224.92
2018-10-01T06:06:49.850Z,147208.77
2018-10-01T06:09:19.648Z,147213.72
2018-10-01T06:11:49.431Z,147232.36
2018-10-01T06:14:19.240Z,147239.80
2018-10-01T06:16:49.577Z,147249.72
2018-10-01T06:19:19.216Z,147259.67
2018-10-01T06:21:48.888Z,147258.44
2018-10-01T06:24:18.749Z,147257.20
2018-10-01T06:26:48.471Z,147257.20
2018-10-01T06:29:18.164Z,147267.16
2018-10-01T06:31:47.913Z,147278.33
2018-10-01T06:34:17.722Z,147273.36
2018-10-01T06:36:47.431Z,147289.47
2018-10-01T06:39:17.133Z,147316.80
2018-10-01T06:41:46.889Z,147319.28
2018-10-01T06:44:16.520Z,147320.52
2018-10-01T06:46:46.160Z,147341.59
2018-10-01T06:49:15.901Z,147386.28
2018-10-01T06:51:45.636Z,147392.48
2018-10-01T06:54:15.508Z,147380.08
2018-10-01T06:56:45.174Z,147375.12
2018-10-01T06:59:14.827Z,147386.28
2018-10-01T07:01:44.529Z,147411.13
2018-10-01T07:04:14.320Z,147412.38
2018-10-01T07:06:43.970Z,147421.05
2018-10-01T07:09:13.664Z,147426.02
2018-10-01T07:11:43.503Z,147448.34
2018-10-01T07:14:13.627Z,147465.75
2018-10-01T07:16:43.408Z,147475.67
2018-10-01T07:19:13.172Z,147494.28
2018-10-01T07:21:42.868Z,147525.34
2018-10-01T07:24:12.585Z,147536.50
2018-10-01T07:26:42.283Z,147552.73
2018-10-01T07:29:12.057Z,147544.00
2018-10-01T07:31:41.708Z,147549.00
2018-10-01T07:34:11.404Z,147537.80
2018-10-01T07:36:43.248Z,147547.77
2018-10-01T07:39:12.927Z,147561.41
2018-10-01T07:41:42.713Z,147555.22
2018-10-01T07:44:12.452Z,147563.91
2018-10-01T07:46:42.542Z,147570.09
2018-10-01T07:49:12.395Z,147586.23
2018-10-01T07:51:42.532Z,147597.44
2018-10-01T07:54:13.468Z,147592.48
2018-10-01T07:56:44.603Z,147578.78
2018-10-01T07:59:16.662Z,147565.12
2018-10-01T08:01:47.583Z,147560.17
2018-10-01T08:04:19.931Z,147551.48
2018-10-01T08:06:50.241Z,147547.77
2018-10-01T08:09:21.748Z,147537.80
2018-10-01T08:11:52.929Z,147540.28
2018-10-01T08:14:22.943Z,147532.78
2018-10-01T08:16:53.034Z,147515.41
2018-10-01T08:19:23.251Z,147509.22
2018-10-01T08:21:53.656Z,147478.16
2018-10-01T08:24:24.556Z,147522.86
2018-10-01T08:26:55.140Z,147526.58
2018-10-01T08:29:24.821Z,147545.28
2018-10-01T08:31:54.537Z,147527.83
2018-10-01T08:34:24.391Z,147535.27
2018-10-01T08:36:54.254Z,147541.52
2018-10-01T08:39:23.951Z,147537.80
2018-10-01T08:41:53.598Z,147522.86
2018-10-01T08:44:23.430Z,147537.80
2018-10-01T08:46:53.221Z,147557.69
2018-10-01T08:49:59.398Z,147577.55
2018-10-01T08:52:34.058Z,147596.20
2018-10-01T08:55:04.050Z,147593.72
2018-10-01T08:57:33.763Z,147582.50
2018-10-01T09:00:03.562Z,147575.06
2018-10-01T09:02:33.297Z,147589.95
2018-10-01T09:05:03.772Z,147607.37
2018-10-01T09:07:33.601Z,147654.58
2018-10-01T09:10:03.363Z,147664.50
2018-10-01T09:12:34.167Z,147657.06
2018-10-01T09:15:03.947Z,147665.75
2018-10-01T09:17:33.622Z,147681.88
2018-10-01T09:20:03.345Z,147670.70
2018-10-01T09:22:33.079Z,147670.70
2018-10-01T09:25:02.757Z,147663.27
2018-10-01T09:27:33.127Z,147684.38
2018-10-01T09:30:03.763Z,147678.16
2018-10-01T09:32:33.919Z,147666.98
2018-10-01T09:35:04.296Z,147663.27
2018-10-01T09:37:34.448Z,147670.70
2018-10-01T09:40:04.253Z,147666.98
2018-10-01T09:42:35.832Z,147647.13
2018-10-01T09:45:06.074Z,147657.06
2018-10-01T09:47:37.262Z,147659.55
2018-10-01T09:50:10.227Z,147642.17
2018-10-01T09:52:40.387Z,147654.58
2018-10-01T09:55:10.870Z,147635.92
2018-10-01T09:57:42.321Z,147632.19
2018-10-01T10:00:12.336Z,147624.75
2018-10-01T10:02:41.995Z,147607.37
2018-10-01T10:05:13.036Z,147596.20
2018-10-01T10:07:42.757Z,147592.48
2018-10-01T10:10:12.522Z,147584.98
2018-10-01T10:12:44.021Z,147597.44
2018-10-01T10:15:13.994Z,147582.50
2018-10-01T10:17:43.699Z,147580.03
2018-10-01T10:20:13.443Z,147573.83
2018-10-01T10:22:43.964Z,147583.75
2018-10-01T10:25:14.795Z,147580.03
2018-10-01T10:27:44.684Z,147571.34
2018-10-01T10:30:14.500Z,147565.12
2018-10-01T10:32:44.182Z,147540.28
2018-10-01T10:35:14.957Z,147547.77
2018-10-01T10:37:44.713Z,147556.45
2018-10-01T10:40:14.434Z,147567.62
2018-10-01T10:42:44.110Z,147566.37
2018-10-01T10:45:13.804Z,147573.83
2018-10-01T10:47:43.504Z,147594.97
2018-10-01T10:50:13.267Z,147584.98
2018-10-01T10:52:43.047Z,147589.95
2018-10-01T10:55:13.062Z,147601.17
2018-10-01T10:57:42.793Z,147589.95
2018-10-01T11:00:16.355Z,147583.75
2018-10-01T11:02:47.448Z,147591.19
2018-10-01T11:05:18.294Z,147592.48
2018-10-01T11:07:47.997Z,147586.23
2018-10-01T11:10:17.708Z,147607.37
2018-10-01T11:12:47.472Z,147584.98
2018-10-01T11:15:18.550Z,147578.78
2018-10-01T11:17:48.157Z,147572.58
2018-10-01T11:20:17.958Z,147573.83
2018-10-01T11:22:47.631Z,147575.06
2018-10-01T11:25:17.392Z,147557.69
2018-10-01T11:27:47.054Z,147577.55
2018-10-01T11:30:16.752Z,147582.50
2018-10-01T11:32:46.456Z,147582.50
2018-10-01T11:35:16.364Z,147596.20
2018-10-01T11:37:45.939Z,147588.72
2018-10-01T11:40:15.676Z,147601.17
2018-10-01T11:42:45.461Z,147604.89
2018-10-01T11:45:15.226Z,147597.44
2018-10-01T11:47:45.206Z,147587.47
2018-10-01T11:50:16.509Z,147588.72
2018-10-01T11:52:46.249Z,147588.72
2018-10-01T11:55:17.525Z,147582.50
2018-10-01T11:57:47.326Z,147580.03
2018-10-01T12:00:19.077Z,147575.06
2018-10-01T12:02:49.140Z,147580.03
2018-10-01T12:05:18.951Z,147567.62
2018-10-01T12:07:48.647Z,147562.66
2018-10-01T12:10:19.038Z,147565.12
2018-10-01T12:12:49.451Z,147547.77
2018-10-01T12:15:19.791Z,147547.77
2018-10-01T12:17:49.500Z,147550.25
2018-10-01T12:20:19.099Z,147541.52
2018-10-01T12:22:48.720Z,147544.00
2018-10-01T12:25:18.335Z,147547.77
2018-10-01T12:27:48.232Z,147550.25
2018-10-01T12:30:17.870Z,147553.97
2018-10-01T12:32:47.578Z,147550.25
2018-10-01T12:35:17.225Z,147542.75
2018-10-01T12:37:47.405Z,147547.77
2018-10-01T12:40:17.099Z,147552.73
2018-10-01T12:42:46.894Z,147556.45
2018-10-01T12:45:16.690Z,147545.28
2018-10-01T12:47:46.353Z,147535.27
2018-10-01T12:50:16.026Z,147525.34
2018-10-01T12:52:45.807Z,147529.06
2018-10-01T12:55:16.138Z,147527.83
2018-10-01T12:57:46.596Z,147512.94
2018-10-01T13:00:16.947Z,147504.25
2018-10-01T13:02:47.091Z,147496.77
2018-10-01T13:05:17.383Z,147483.12
2018-10-01T13:07:47.691Z,147491.80
2018-10-01T13:10:18.018Z,147491.80
2018-10-01T13:12:49.216Z,147507.97
2018-10-01T13:15:20.647Z,147493.03
2018-10-01T13:17:50.867Z,147503.02
2018-10-01T13:20:20.568Z,147511.69
2018-10-01T13:22:50.444Z,147500.53
2018-10-01T13:25:21.260Z,147509.22
2018-10-01T13:27:51.047Z,147514.17
2018-10-01T13:30:20.924Z,147505.50
2018-10-01T13:32:50.432Z,147507.97
2018-10-01T13:35:20.133Z,147525.34
2018-10-01T13:37:49.921Z,147520.38
2018-10-01T13:40:20.469Z,147514.17
2018-10-01T13:42:50.074Z,147529.06
2018-10-01T13:45:19.886Z,147522.86
2018-10-01T13:47:49.554Z,147537.80
2018-10-01T13:50:19.340Z,147530.30
2018-10-01T13:52:48.981Z,147522.86
2018-10-01T13:55:18.809Z,147537.80
2018-10-01T13:57:48.499Z,147542.75
2018-10-01T14:00:18.326Z,147534.03
2018-10-01T14:02:48.605Z,147541.52
2018-10-01T14:05:18.853Z,147534.03
2018-10-01T14:07:48.499Z,147541.52
2018-10-01T14:10:18.330Z,147541.52
2018-10-01T14:12:48.077Z,147551.48
2018-10-01T14:15:17.819Z,147555.22
2018-10-01T14:17:47.503Z,147560.17
2018-10-01T14:20:17.127Z,147561.41
2018-10-01T14:22:47.229Z,147557.69
2018-10-01T14:25:16.965Z,147560.17
2018-10-01T14:27:47.029Z,147571.34
2018-10-01T14:30:16.975Z,147581.27
2018-10-01T14:32:46.599Z,147572.58
2018-10-01T14:35:16.308Z,147568.86
2018-10-01T14:37:47.124Z,147567.62
2018-10-01T14:40:16.838Z,147558.94
2018-10-01T14:42:46.452Z,147561.41
2018-10-01T14:45:16.167Z,147562.66
2018-10-01T14:47:45.846Z,147570.09
2018-10-01T14:50:16.607Z,147552.73
2018-10-01T14:52:46.983Z,147551.48
2018-10-01T14:55:17.977Z,147541.52
2018-10-01T14:57:48.237Z,147553.97
2018-10-01T15:00:18.321Z,147562.66
2018-10-01T15:02:48.405Z,147562.66
2018-10-01T15:05:18.227Z,147555.22
2018-10-01T15:07:47.986Z,147562.66
2018-10-01T15:10:17.682Z,147557.69
2018-10-01T15:12:47.820Z,147561.41
2018-10-01T15:15:17.677Z,147566.37
2018-10-01T15:17:48.462Z,147566.37
2018-10-01T15:20:18.945Z,147580.03
2018-10-01T15:22:48.672Z,147583.75
2018-10-01T15:25:19.018Z,147588.72
2018-10-01T15:27:50.516Z,147589.95
2018-10-01T15:30:21.367Z,147584.98
2018-10-01T15:32:51.781Z,147578.78
2018-10-01T15:35:21.910Z,147584.98
2018-10-01T15:37:52.150Z,147592.48
2018-10-01T15:40:23.144Z,147591.19
2018-10-01T15:42:53.503Z,147580.03
2018-10-01T15:45:24.420Z,147584.98
2018-10-01T15:47:55.145Z,147567.62
2018-10-01T15:50:24.847Z,147552.73
2018-10-01T15:52:55.604Z,147555.22
2018-10-01T15:55:25.464Z,147553.97
2018-10-01T15:57:55.560Z,147529.06
2018-10-01T16:00:25.863Z,147524.09
2018-10-01T16:02:56.123Z,147521.63
2018-10-01T16:05:26.524Z,147522.86
2018-10-01T16:07:56.257Z,147520.38
2018-10-01T16:10:26.082Z,147512.94
2018-10-01T16:12:55.889Z,147531.55
2018-10-01T16:15:25.831Z,147530.30
2018-10-01T16:17:55.724Z,147537.80
2018-10-01T16:20:25.507Z,147527.83
2018-10-01T16:22:55.234Z,147527.83
2018-10-01T16:25:25.712Z,147536.50
2018-10-01T16:27:55.983Z,147552.73
2018-10-01T16:30:26.147Z,147563.91
2018-10-01T16:32:56.711Z,147555.22
2018-10-01T16:35:27.271Z,147550.25
2018-10-01T16:37:58.127Z,147545.28
2018-10-01T16:40:27.914Z,147545.28
2018-10-01T16:42:57.713Z,147530.30
2018-10-01T16:45:28.026Z,147525.34
2018-10-01T16:47:59.792Z,147519.14
2018-10-01T16:50:30.322Z,147520.38
2018-10-01T16:53:00.121Z,147512.94
2018-10-01T16:55:31.251Z,147506.73
2018-10-01T16:58:01.147Z,147514.17
2018-10-01T17:00:31.000Z,147519.14
2018-10-01T17:03:01.894Z,147520.38
2018-10-01T17:05:31.556Z,147511.69
2018-10-01T17:08:01.226Z,147527.83
2018-10-01T17:10:30.985Z,147522.86
2018-10-01T17:13:00.901Z,147530.30
2018-10-01T17:15:36.729Z,147532.78
2018-10-01T17:18:06.446Z,147527.83
2018-10-01T17:20:36.648Z,147535.27
2018-10-01T17:23:07.488Z,147532.78
2018-10-01T17:25:37.630Z,147542.75
2018-10-01T17:28:07.753Z,147536.50
2018-10-01T17:30:39.563Z,147532.78
2018-10-01T17:33:09.355Z,147546.53
2018-10-01T17:35:43.070Z,147542.75
2018-10-01T17:38:14.137Z,147550.25
2018-10-01T17:40:44.169Z,147547.77
2018-10-01T17:43:13.947Z,147567.62
2018-10-01T17:45:43.728Z,147563.91
2018-10-01T17:48:14.457Z,147552.73
2018-10-01T17:50:44.277Z,147562.66
2018-10-01T17:53:15.257Z,147578.78
2018-10-01T17:55:45.034Z,147568.86
2018-10-01T17:58:14.830Z,147565.12
2018-10-01T18:00:44.879Z,147587.47
2018-10-01T18:03:14.608Z,147582.50
2018-10-01T18:05:44.424Z,147592.48
2018-10-01T18:08:14.503Z,147583.75
2018-10-01T18:10:44.593Z,147592.48
2018-10-01T18:13:14.871Z,147587.47
2018-10-01T18:15:45.122Z,147597.44
2018-10-01T18:18:16.208Z,147599.92
2018-10-01T18:20:55.936Z,147609.84
2018-10-01T18:23:26.176Z,147606.13
2018-10-01T18:25:56.036Z,147614.81
2018-10-01T18:28:26.812Z,147614.81
2018-10-01T18:30:56.905Z,147603.66
2018-10-01T18:33:26.616Z,147597.44
2018-10-01T18:35:57.110Z,147587.47
2018-10-01T18:38:28.462Z,147587.47
2018-10-01T18:40:59.054Z,147591.19
2018-10-01T18:43:29.288Z,147582.50
2018-10-01T18:46:00.399Z,147578.78
2018-10-01T18:48:30.669Z,147596.20
2018-10-01T18:51:01.579Z,147577.55
2018-10-01T18:53:31.724Z,147575.06
2018-10-01T18:56:02.087Z,147583.75
2018-10-01T18:58:31.945Z,147592.48
2018-10-01T19:01:02.012Z,147594.97
2018-10-01T19:03:32.415Z,147611.09
2018-10-01T19:06:02.407Z,147623.50
2018-10-01T19:08:32.410Z,147618.53
2018-10-01T19:11:02.094Z,147624.75
2018-10-01T19:13:32.363Z,147627.22
2018-10-01T19:16:02.618Z,147635.92
2018-10-01T19:18:33.298Z,147645.89
2018-10-01T19:21:03.324Z,147664.50
2018-10-01T19:23:34.075Z,147664.50
2018-10-01T19:26:04.491Z,147680.64
2018-10-01T19:28:35.293Z,147686.89
2018-10-01T19:31:06.144Z,147685.61
2018-10-01T19:33:36.360Z,147688.13
2018-10-01T19:36:06.421Z,147691.86
2018-10-01T19:38:36.116Z,147695.59
2018-10-01T19:41:06.539Z,147691.86
2018-10-01T19:43:36.316Z,147669.47
2018-10-01T19:46:06.994Z,147654.58
2018-10-01T19:48:36.794Z,147662.03
2018-10-01T19:51:06.501Z,147654.58
2018-10-01T19:53:41.555Z,147654.58
2018-10-01T19:56:11.428Z,147654.58
2018-10-01T19:58:41.608Z,147676.92
2018-10-01T20:01:11.383Z,147652.09
2018-10-01T20:03:41.212Z,147652.09
2018-10-01T20:06:11.082Z,147639.69
2018-10-01T20:08:45.826Z,147638.39
2018-10-01T20:11:15.615Z,147642.17
2018-10-01T20:13:45.812Z,147640.92
2018-10-01T20:16:15.691Z,147647.13
2018-10-01T20:18:45.490Z,147644.66
2018-10-01T20:21:15.428Z,147644.66
2018-10-01T20:23:45.795Z,147664.50
2018-10-01T20:26:17.117Z,147683.12
2018-10-01T20:28:47.546Z,147679.41
2018-10-01T20:31:17.545Z,147681.88
2018-10-01T20:33:47.251Z,147694.34
2018-10-01T20:36:17.075Z,147706.75
2018-10-01T20:38:46.822Z,147706.75
2018-10-01T20:41:16.586Z,147686.89
2018-10-01T20:58:45.897Z,147684.38
2018-10-01T21:01:15.700Z,147678.16
2018-10-01T21:03:45.399Z,147673.19
2018-10-01T21:06:15.123Z,147678.16
2018-10-01T21:08:44.928Z,147678.16
2018-10-01T21:11:14.638Z,147669.47
2018-10-01T21:13:44.430Z,147673.19
2018-10-01T21:16:14.143Z,147676.92
2018-10-01T21:18:44.138Z,147676.92
2018-10-01T21:21:13.829Z,147671.95
2018-10-01T21:23:44.293Z,147673.19
2018-10-01T21:26:14.288Z,147655.81
2018-10-01T21:28:44.630Z,147676.92
2018-10-01T21:31:14.826Z,147666.98
2018-10-01T21:33:45.933Z,147665.75
2018-10-01T21:36:16.425Z,147669.47
2018-10-01T21:38:46.685Z,147668.23
2018-10-01T21:41:17.862Z,147652.09
2018-10-01T21:43:48.780Z,147637.16
2018-10-01T21:46:19.222Z,147649.61
2018-10-01T21:48:49.477Z,147639.69
2018-10-01T21:51:19.835Z,147630.95
2018-10-01T21:53:49.962Z,147655.81
2018-10-01T21:56:20.365Z,147666.98
2018-10-01T21:58:50.889Z,147655.81
2018-10-01T22:01:25.870Z,147649.61
2018-10-01T22:03:56.030Z,147645.89
2018-10-01T22:06:26.256Z,147647.13
2018-10-01T22:08:56.835Z,147640.92
2018-10-01T22:11:27.081Z,147652.09
2018-10-01T22:13:56.989Z,147644.66
2018-10-01T22:16:27.004Z,147642.17
2018-10-01T22:18:57.005Z,147637.16
2018-10-01T22:21:27.079Z,147662.03
2018-10-01T22:23:57.523Z,147663.27
2018-10-01T22:26:27.600Z,147654.58
2018-10-01T22:28:58.023Z,147666.98
2018-10-01T22:31:28.322Z,147671.95
2018-10-01T22:33:59.538Z,147660.78
2018-10-01T22:36:29.553Z,147665.75
2018-10-01T22:38:59.997Z,147684.38
2018-10-01T22:41:31.154Z,147674.44
2018-10-01T22:44:03.779Z,147679.41
2018-10-01T22:46:35.297Z,147683.12
2018-10-01T22:49:05.649Z,147689.38
2018-10-01T22:51:35.557Z,147694.34
2018-10-01T22:54:05.892Z,147686.89
2018-10-01T22:56:36.301Z,147674.44
2018-10-01T22:59:07.812Z,147689.38
2018-10-01T23:01:37.842Z,147679.41
2018-10-01T23:04:07.961Z,147685.61
2018-10-01T23:06:38.240Z,147679.41
2018-10-01T23:09:10.698Z,147684.38
2018-10-01T23:11:40.710Z,147681.88
2018-10-01T23:14:10.811Z,147664.50
2018-10-01T23:16:40.976Z,147681.88
2018-10-01T23:19:11.046Z,147676.92
2018-10-01T23:21:41.044Z,147688.13
2018-10-01T23:24:11.139Z,147695.59
2018-10-01T23:26:42.164Z,147695.59
2018-10-01T23:29:12.504Z,147701.78
2018-10-01T23:31:42.444Z,147709.23
2018-10-01T23:34:12.481Z,147710.47
2018-10-01T23:36:42.566Z,147715.44
2018-10-01T23:39:12.675Z,147721.66
2018-10-01T23:41:42.750Z,147720.41
2018-10-01T23:44:12.774Z,147726.61
2018-10-01T23:46:42.794Z,147724.14
2018-10-01T23:49:13.059Z,147729.09
2018-10-01T23:51:44.475Z,147730.34
2018-10-01T23:54:14.725Z,147736.59
2018-10-01T23:56:44.580Z,147751.48
2018-10-01T23:59:14.909Z,147771.36
